sensor_id;sensor_type;location;lat;lon;timestamp;pressure;altitude;pressure_sealevel;temperature
68012;BMP180;54794;48.348;7.878;2022-07-24T00:01:39;99403.00;;;26.50
68012;BMP180;54794;48.348;7.878;2022-07-24T00:04:06;99413.00;;;26.50
68012;BMP180;54794;48.348;7.878;2022-07-24T00:06:33;99408.00;;;26.40
68012;BMP180;54794;48.348;7.878;2022-07-24T00:09:00;99405.00;;;26.40
68012;BMP180;54794;48.348;7.878;2022-07-24T00:11:28;99409.00;;;26.30
68012;BMP180;54794;48.348;7.878;2022-07-24T00:13:55;99392.00;;;26.40
68012;BMP180;54794;48.348;7.878;2022-07-24T00:16:22;99407.00;;;26.40
68012;BMP180;54794;48.348;7.878;2022-07-24T00:18:49;99418.00;;;26.30
68012;BMP180;54794;48.348;7.878;2022-07-24T00:21:16;99411.00;;;26.30
68012;BMP180;54794;48.348;7.878;2022-07-24T00:23:43;99400.00;;;26.30
68012;BMP180;54794;48.348;7.878;2022-07-24T00:26:13;99409.00;;;26.30
68012;BMP180;54794;48.348;7.878;2022-07-24T00:28:40;99421.00;;;26.20
68012;BMP180;54794;48.348;7.878;2022-07-24T00:31:07;99417.00;;;26.20
68012;BMP180;54794;48.348;7.878;2022-07-24T00:33:34;99407.00;;;26.20
68012;BMP180;54794;48.348;7.878;2022-07-24T00:36:01;99405.00;;;26.20
68012;BMP180;54794;48.348;7.878;2022-07-24T00:38:28;99400.00;;;26.10
68012;BMP180;54794;48.348;7.878;2022-07-24T00:40:55;99405.00;;;26.10
68012;BMP180;54794;48.348;7.878;2022-07-24T00:43:22;99405.00;;;26.10
68012;BMP180;54794;48.348;7.878;2022-07-24T00:45:49;99398.00;;;26.10
68012;BMP180;54794;48.348;7.878;2022-07-24T00:48:17;99412.00;;;26.10
68012;BMP180;54794;48.348;7.878;2022-07-24T00:50:46;99408.00;;;26.10
68012;BMP180;54794;48.348;7.878;2022-07-24T00:53:15;99408.00;;;26.10
68012;BMP180;54794;48.348;7.878;2022-07-24T00:55:43;99408.00;;;26.00
68012;BMP180;54794;48.348;7.878;2022-07-24T00:58:10;99410.00;;;26.00
68012;BMP180;54794;48.348;7.878;2022-07-24T01:00:38;99388.00;;;26.00
68012;BMP180;54794;48.348;7.878;2022-07-24T01:03:05;99397.00;;;26.00
68012;BMP180;54794;48.348;7.878;2022-07-24T01:05:32;99397.00;;;25.90
68012;BMP180;54794;48.348;7.878;2022-07-24T01:07:59;99389.00;;;25.90
68012;BMP180;54794;48.348;7.878;2022-07-24T01:10:27;99388.00;;;25.90
68012;BMP180;54794;48.348;7.878;2022-07-24T01:12:55;99376.00;;;25.80
68012;BMP180;54794;48.348;7.878;2022-07-24T01:15:22;99379.00;;;25.80
68012;BMP180;54794;48.348;7.878;2022-07-24T01:17:49;99387.00;;;25.80
68012;BMP180;54794;48.348;7.878;2022-07-24T01:20:16;99397.00;;;25.70
68012;BMP180;54794;48.348;7.878;2022-07-24T01:22:43;99401.00;;;25.70
68012;BMP180;54794;48.348;7.878;2022-07-24T01:25:10;99400.00;;;25.70
68012;BMP180;54794;48.348;7.878;2022-07-24T01:27:37;99394.00;;;25.60
68012;BMP180;54794;48.348;7.878;2022-07-24T01:30:05;99390.00;;;25.60
68012;BMP180;54794;48.348;7.878;2022-07-24T01:32:32;99387.00;;;25.60
68012;BMP180;54794;48.348;7.878;2022-07-24T01:34:59;99392.00;;;25.60
68012;BMP180;54794;48.348;7.878;2022-07-24T01:37:26;99386.00;;;25.60
68012;BMP180;54794;48.348;7.878;2022-07-24T01:39:53;99396.00;;;25.50
68012;BMP180;54794;48.348;7.878;2022-07-24T01:42:20;99395.00;;;25.50
68012;BMP180;54794;48.348;7.878;2022-07-24T01:44:47;99392.00;;;25.50
68012;BMP180;54794;48.348;7.878;2022-07-24T01:47:14;99399.00;;;25.40
68012;BMP180;54794;48.348;7.878;2022-07-24T01:49:41;99385.00;;;25.40
68012;BMP180;54794;48.348;7.878;2022-07-24T01:52:09;99387.00;;;25.40
68012;BMP180;54794;48.348;7.878;2022-07-24T01:54:36;99388.00;;;25.30
68012;BMP180;54794;48.348;7.878;2022-07-24T01:57:03;99376.00;;;25.30
68012;BMP180;54794;48.348;7.878;2022-07-24T01:59:32;99391.00;;;25.30
68012;BMP180;54794;48.348;7.878;2022-07-24T02:02:00;99395.00;;;25.20
68012;BMP180;54794;48.348;7.878;2022-07-24T02:04:27;99397.00;;;25.20
68012;BMP180;54794;48.348;7.878;2022-07-24T02:06:54;99389.00;;;25.20
68012;BMP180;54794;48.348;7.878;2022-07-24T02:09:21;99385.00;;;25.20
68012;BMP180;54794;48.348;7.878;2022-07-24T02:11:48;99391.00;;;25.10
68012;BMP180;54794;48.348;7.878;2022-07-24T02:14:15;99384.00;;;25.10
68012;BMP180;54794;48.348;7.878;2022-07-24T02:16:41;99376.00;;;25.10
68012;BMP180;54794;48.348;7.878;2022-07-24T02:19:09;99376.00;;;25.00
68012;BMP180;54794;48.348;7.878;2022-07-24T02:21:36;99378.00;;;25.00
68012;BMP180;54794;48.348;7.878;2022-07-24T02:24:03;99374.00;;;25.00
68012;BMP180;54794;48.348;7.878;2022-07-24T02:26:31;99390.00;;;24.90
68012;BMP180;54794;48.348;7.878;2022-07-24T02:28:58;99384.00;;;24.90
68012;BMP180;54794;48.348;7.878;2022-07-24T02:31:25;99381.00;;;24.90
68012;BMP180;54794;48.348;7.878;2022-07-24T02:33:52;99382.00;;;24.80
68012;BMP180;54794;48.348;7.878;2022-07-24T02:36:18;99390.00;;;24.80
68012;BMP180;54794;48.348;7.878;2022-07-24T02:38:45;99397.00;;;24.80
68012;BMP180;54794;48.348;7.878;2022-07-24T02:41:12;99398.00;;;24.80
68012;BMP180;54794;48.348;7.878;2022-07-24T02:43:39;99405.00;;;24.70
68012;BMP180;54794;48.348;7.878;2022-07-24T02:46:06;99395.00;;;24.70
68012;BMP180;54794;48.348;7.878;2022-07-24T02:48:33;99405.00;;;24.70
68012;BMP180;54794;48.348;7.878;2022-07-24T02:51:00;99395.00;;;24.70
68012;BMP180;54794;48.348;7.878;2022-07-24T02:53:27;99393.00;;;24.60
68012;BMP180;54794;48.348;7.878;2022-07-24T02:55:54;99401.00;;;24.60
68012;BMP180;54794;48.348;7.878;2022-07-24T02:58:21;99394.00;;;24.60
68012;BMP180;54794;48.348;7.878;2022-07-24T03:00:48;99402.00;;;24.60
68012;BMP180;54794;48.348;7.878;2022-07-24T03:03:15;99392.00;;;24.50
68012;BMP180;54794;48.348;7.878;2022-07-24T03:05:42;99397.00;;;24.50
68012;BMP180;54794;48.348;7.878;2022-07-24T03:08:09;99387.00;;;24.50
68012;BMP180;54794;48.348;7.878;2022-07-24T03:10:36;99393.00;;;24.50
68012;BMP180;54794;48.348;7.878;2022-07-24T03:13:03;99396.00;;;24.40
68012;BMP180;54794;48.348;7.878;2022-07-24T03:15:32;99397.00;;;24.40
68012;BMP180;54794;48.348;7.878;2022-07-24T03:17:59;99390.00;;;24.40
68012;BMP180;54794;48.348;7.878;2022-07-24T03:20:29;99386.00;;;24.40
68012;BMP180;54794;48.348;7.878;2022-07-24T03:22:57;99384.00;;;24.40
68012;BMP180;54794;48.348;7.878;2022-07-24T03:25:24;99390.00;;;24.30
68012;BMP180;54794;48.348;7.878;2022-07-24T03:27:51;99397.00;;;24.30
68012;BMP180;54794;48.348;7.878;2022-07-24T03:30:19;99400.00;;;24.30
68012;BMP180;54794;48.348;7.878;2022-07-24T03:32:46;99393.00;;;24.30
68012;BMP180;54794;48.348;7.878;2022-07-24T03:35:13;99396.00;;;24.20
68012;BMP180;54794;48.348;7.878;2022-07-24T03:37:40;99396.00;;;24.20
68012;BMP180;54794;48.348;7.878;2022-07-24T03:40:08;99400.00;;;24.20
68012;BMP180;54794;48.348;7.878;2022-07-24T03:42:35;99392.00;;;24.20
68012;BMP180;54794;48.348;7.878;2022-07-24T03:45:03;99398.00;;;24.20
68012;BMP180;54794;48.348;7.878;2022-07-24T03:47:30;99402.00;;;24.10
68012;BMP180;54794;48.348;7.878;2022-07-24T03:49:57;99401.00;;;24.10
68012;BMP180;54794;48.348;7.878;2022-07-24T03:52:24;99399.00;;;24.10
68012;BMP180;54794;48.348;7.878;2022-07-24T03:54:51;99406.00;;;24.10
68012;BMP180;54794;48.348;7.878;2022-07-24T03:57:18;99400.00;;;24.00
68012;BMP180;54794;48.348;7.878;2022-07-24T03:59:45;99409.00;;;24.00
68012;BMP180;54794;48.348;7.878;2022-07-24T04:02:12;99414.00;;;24.00
68012;BMP180;54794;48.348;7.878;2022-07-24T04:04:39;99413.00;;;24.00
68012;BMP180;54794;48.348;7.878;2022-07-24T04:07:06;99403.00;;;23.90
68012;BMP180;54794;48.348;7.878;2022-07-24T04:09:33;99409.00;;;23.90
68012;BMP180;54794;48.348;7.878;2022-07-24T04:12:00;99417.00;;;23.90
68012;BMP180;54794;48.348;7.878;2022-07-24T04:14:27;99413.00;;;23.90
68012;BMP180;54794;48.348;7.878;2022-07-24T04:16:54;99424.00;;;23.90
68012;BMP180;54794;48.348;7.878;2022-07-24T04:19:22;99422.00;;;23.90
68012;BMP180;54794;48.348;7.878;2022-07-24T04:21:48;99416.00;;;23.80
68012;BMP180;54794;48.348;7.878;2022-07-24T04:24:15;99422.00;;;23.80
68012;BMP180;54794;48.348;7.878;2022-07-24T04:26:42;99425.00;;;23.80
68012;BMP180;54794;48.348;7.878;2022-07-24T04:29:10;99429.00;;;23.80
68012;BMP180;54794;48.348;7.878;2022-07-24T04:31:37;99432.00;;;23.70
68012;BMP180;54794;48.348;7.878;2022-07-24T04:34:04;99422.00;;;23.80
68012;BMP180;54794;48.348;7.878;2022-07-24T04:36:31;99425.00;;;23.70
68012;BMP180;54794;48.348;7.878;2022-07-24T04:38:58;99425.00;;;23.80
68012;BMP180;54794;48.348;7.878;2022-07-24T04:41:26;99419.00;;;23.80
68012;BMP180;54794;48.348;7.878;2022-07-24T04:43:56;99432.00;;;23.80
68012;BMP180;54794;48.348;7.878;2022-07-24T04:46:23;99432.00;;;23.70
68012;BMP180;54794;48.348;7.878;2022-07-24T04:48:50;99416.00;;;23.70
68012;BMP180;54794;48.348;7.878;2022-07-24T04:51:17;99423.00;;;23.70
68012;BMP180;54794;48.348;7.878;2022-07-24T04:53:44;99421.00;;;23.70
68012;BMP180;54794;48.348;7.878;2022-07-24T04:56:11;99428.00;;;23.80
68012;BMP180;54794;48.348;7.878;2022-07-24T04:58:38;99421.00;;;23.70
68012;BMP180;54794;48.348;7.878;2022-07-24T05:01:06;99427.00;;;23.80
68012;BMP180;54794;48.348;7.878;2022-07-24T05:03:33;99439.00;;;23.70
68012;BMP180;54794;48.348;7.878;2022-07-24T05:05:59;99435.00;;;23.80
68012;BMP180;54794;48.348;7.878;2022-07-24T05:08:26;99442.00;;;23.80
68012;BMP180;54794;48.348;7.878;2022-07-24T05:10:53;99436.00;;;23.80
68012;BMP180;54794;48.348;7.878;2022-07-24T05:13:20;99431.00;;;23.80
68012;BMP180;54794;48.348;7.878;2022-07-24T05:15:47;99436.00;;;23.80
68012;BMP180;54794;48.348;7.878;2022-07-24T05:18:14;99437.00;;;23.90
68012;BMP180;54794;48.348;7.878;2022-07-24T05:20:41;99439.00;;;23.90
68012;BMP180;54794;48.348;7.878;2022-07-24T05:23:08;99426.00;;;23.90
68012;BMP180;54794;48.348;7.878;2022-07-24T05:25:35;99431.00;;;23.90
68012;BMP180;54794;48.348;7.878;2022-07-24T05:28:03;99424.00;;;24.00
68012;BMP180;54794;48.348;7.878;2022-07-24T05:30:30;99436.00;;;24.00
68012;BMP180;54794;48.348;7.878;2022-07-24T05:32:57;99424.00;;;24.00
68012;BMP180;54794;48.348;7.878;2022-07-24T05:35:24;99431.00;;;24.00
68012;BMP180;54794;48.348;7.878;2022-07-24T05:37:55;99421.00;;;24.10
68012;BMP180;54794;48.348;7.878;2022-07-24T05:40:22;99413.00;;;24.10
68012;BMP180;54794;48.348;7.878;2022-07-24T05:42:49;99436.00;;;24.10
68012;BMP180;54794;48.348;7.878;2022-07-24T05:45:16;99430.00;;;24.20
68012;BMP180;54794;48.348;7.878;2022-07-24T05:47:43;99431.00;;;24.20
68012;BMP180;54794;48.348;7.878;2022-07-24T05:50:13;99430.00;;;24.20
68012;BMP180;54794;48.348;7.878;2022-07-24T05:52:41;99426.00;;;24.30
68012;BMP180;54794;48.348;7.878;2022-07-24T05:55:09;99436.00;;;24.40
68012;BMP180;54794;48.348;7.878;2022-07-24T05:57:44;99435.00;;;24.40
68012;BMP180;54794;48.348;7.878;2022-07-24T06:00:14;99431.00;;;24.50
68012;BMP180;54794;48.348;7.878;2022-07-24T06:02:45;99440.00;;;24.50
68012;BMP180;54794;48.348;7.878;2022-07-24T06:05:14;99437.00;;;24.60
68012;BMP180;54794;48.348;7.878;2022-07-24T06:07:42;99442.00;;;24.70
68012;BMP180;54794;48.348;7.878;2022-07-24T06:10:10;99434.00;;;24.70
68012;BMP180;54794;48.348;7.878;2022-07-24T06:12:40;99435.00;;;24.80
68012;BMP180;54794;48.348;7.878;2022-07-24T06:15:09;99426.00;;;24.90
68012;BMP180;54794;48.348;7.878;2022-07-24T06:17:36;99409.00;;;24.90
68012;BMP180;54794;48.348;7.878;2022-07-24T06:20:05;99412.00;;;25.00
68012;BMP180;54794;48.348;7.878;2022-07-24T06:22:33;99427.00;;;25.10
68012;BMP180;54794;48.348;7.878;2022-07-24T06:25:00;99426.00;;;25.20
68012;BMP180;54794;48.348;7.878;2022-07-24T06:27:27;99417.00;;;25.30
68012;BMP180;54794;48.348;7.878;2022-07-24T06:29:53;99413.00;;;25.40
68012;BMP180;54794;48.348;7.878;2022-07-24T06:32:22;99422.00;;;25.50
68012;BMP180;54794;48.348;7.878;2022-07-24T06:34:49;99411.00;;;25.50
68012;BMP180;54794;48.348;7.878;2022-07-24T06:37:16;99416.00;;;25.60
68012;BMP180;54794;48.348;7.878;2022-07-24T06:39:46;99421.00;;;25.70
68012;BMP180;54794;48.348;7.878;2022-07-24T06:42:13;99429.00;;;25.80
68012;BMP180;54794;48.348;7.878;2022-07-24T06:44:40;99427.00;;;25.90
68012;BMP180;54794;48.348;7.878;2022-07-24T06:47:07;99427.00;;;26.00
68012;BMP180;54794;48.348;7.878;2022-07-24T06:49:34;99418.00;;;26.10
68012;BMP180;54794;48.348;7.878;2022-07-24T06:52:00;99419.00;;;26.20
68012;BMP180;54794;48.348;7.878;2022-07-24T06:54:27;99420.00;;;26.30
68012;BMP180;54794;48.348;7.878;2022-07-24T06:56:54;99428.00;;;26.40
68012;BMP180;54794;48.348;7.878;2022-07-24T06:59:21;99416.00;;;26.50
68012;BMP180;54794;48.348;7.878;2022-07-24T07:01:48;99418.00;;;26.60
68012;BMP180;54794;48.348;7.878;2022-07-24T07:04:15;99427.00;;;26.70
68012;BMP180;54794;48.348;7.878;2022-07-24T07:06:42;99426.00;;;26.80
68012;BMP180;54794;48.348;7.878;2022-07-24T07:09:10;99430.00;;;26.90
68012;BMP180;54794;48.348;7.878;2022-07-24T07:11:37;99423.00;;;27.00
68012;BMP180;54794;48.348;7.878;2022-07-24T07:14:04;99414.00;;;27.20
68012;BMP180;54794;48.348;7.878;2022-07-24T07:16:31;99426.00;;;27.20
68012;BMP180;54794;48.348;7.878;2022-07-24T07:18:58;99426.00;;;27.30
68012;BMP180;54794;48.348;7.878;2022-07-24T07:21:25;99424.00;;;27.50
68012;BMP180;54794;48.348;7.878;2022-07-24T07:23:52;99427.00;;;27.60
68012;BMP180;54794;48.348;7.878;2022-07-24T07:26:19;99431.00;;;27.70
68012;BMP180;54794;48.348;7.878;2022-07-24T07:28:47;99416.00;;;27.80
68012;BMP180;54794;48.348;7.878;2022-07-24T07:31:14;99432.00;;;27.80
68012;BMP180;54794;48.348;7.878;2022-07-24T07:33:41;99426.00;;;28.00
68012;BMP180;54794;48.348;7.878;2022-07-24T07:36:08;99432.00;;;28.10
68012;BMP180;54794;48.348;7.878;2022-07-24T07:38:35;99424.00;;;28.10
68012;BMP180;54794;48.348;7.878;2022-07-24T07:41:05;99431.00;;;28.20
68012;BMP180;54794;48.348;7.878;2022-07-24T07:43:36;99432.00;;;28.30
68012;BMP180;54794;48.348;7.878;2022-07-24T07:46:04;99425.00;;;28.40
68012;BMP180;54794;48.348;7.878;2022-07-24T07:48:31;99418.00;;;28.50
68012;BMP180;54794;48.348;7.878;2022-07-24T07:50:59;99411.00;;;28.60
68012;BMP180;54794;48.348;7.878;2022-07-24T07:53:26;99423.00;;;28.70
68012;BMP180;54794;48.348;7.878;2022-07-24T07:55:53;99422.00;;;28.80
68012;BMP180;54794;48.348;7.878;2022-07-24T07:58:20;99426.00;;;28.90
68012;BMP180;54794;48.348;7.878;2022-07-24T08:00:49;99419.00;;;29.10
68012;BMP180;54794;48.348;7.878;2022-07-24T08:03:16;99418.00;;;29.20
68012;BMP180;54794;48.348;7.878;2022-07-24T08:05:48;99423.00;;;29.30
68012;BMP180;54794;48.348;7.878;2022-07-24T08:08:15;99424.00;;;29.30
68012;BMP180;54794;48.348;7.878;2022-07-24T08:10:43;99416.00;;;29.50
68012;BMP180;54794;48.348;7.878;2022-07-24T08:13:10;99426.00;;;29.50
68012;BMP180;54794;48.348;7.878;2022-07-24T08:15:38;99422.00;;;29.70
68012;BMP180;54794;48.348;7.878;2022-07-24T08:18:05;99422.00;;;29.80
68012;BMP180;54794;48.348;7.878;2022-07-24T08:20:32;99425.00;;;29.90
68012;BMP180;54794;48.348;7.878;2022-07-24T08:22:59;99424.00;;;30.00
68012;BMP180;54794;48.348;7.878;2022-07-24T08:25:27;99419.00;;;30.10
68012;BMP180;54794;48.348;7.878;2022-07-24T08:27:54;99423.00;;;30.20
68012;BMP180;54794;48.348;7.878;2022-07-24T08:30:21;99421.00;;;30.30
68012;BMP180;54794;48.348;7.878;2022-07-24T08:32:49;99417.00;;;30.30
68012;BMP180;54794;48.348;7.878;2022-07-24T08:35:16;99416.00;;;30.40
68012;BMP180;54794;48.348;7.878;2022-07-24T08:37:43;99415.00;;;30.40
68012;BMP180;54794;48.348;7.878;2022-07-24T08:40:11;99413.00;;;30.50
68012;BMP180;54794;48.348;7.878;2022-07-24T08:42:39;99415.00;;;30.70
68012;BMP180;54794;48.348;7.878;2022-07-24T08:45:07;99403.00;;;30.80
68012;BMP180;54794;48.348;7.878;2022-07-24T08:47:34;99409.00;;;30.90
68012;BMP180;54794;48.348;7.878;2022-07-24T08:50:06;99407.00;;;31.00
68012;BMP180;54794;48.348;7.878;2022-07-24T08:52:48;99411.00;;;31.10
68012;BMP180;54794;48.348;7.878;2022-07-24T08:55:29;99409.00;;;31.20
68012;BMP180;54794;48.348;7.878;2022-07-24T08:58:10;99406.00;;;31.30
68012;BMP180;54794;48.348;7.878;2022-07-24T09:00:51;99418.00;;;31.40
68012;BMP180;54794;48.348;7.878;2022-07-24T09:03:43;99414.00;;;31.50
68012;BMP180;54794;48.348;7.878;2022-07-24T09:06:24;99409.00;;;31.60
68012;BMP180;54794;48.348;7.878;2022-07-24T09:09:02;99419.00;;;31.70
68012;BMP180;54794;48.348;7.878;2022-07-24T09:11:30;99407.00;;;31.90
68012;BMP180;54794;48.348;7.878;2022-07-24T09:14:01;99408.00;;;31.90
68012;BMP180;54794;48.348;7.878;2022-07-24T09:16:47;99409.00;;;32.00
68012;BMP180;54794;48.348;7.878;2022-07-24T09:19:14;99408.00;;;32.10
68012;BMP180;54794;48.348;7.878;2022-07-24T09:21:44;99410.00;;;32.20
68012;BMP180;54794;48.348;7.878;2022-07-24T09:24:20;99416.00;;;32.30
68012;BMP180;54794;48.348;7.878;2022-07-24T09:29:32;99395.00;;;32.40
68012;BMP180;54794;48.348;7.878;2022-07-24T09:32:22;99405.00;;;32.40
68012;BMP180;54794;48.348;7.878;2022-07-24T09:35:04;99396.00;;;32.60
68012;BMP180;54794;48.348;7.878;2022-07-24T09:37:54;99410.00;;;32.70
68012;BMP180;54794;48.348;7.878;2022-07-24T09:40:23;99407.00;;;32.80
68012;BMP180;54794;48.348;7.878;2022-07-24T09:48:33;99390.00;;;33.10
68012;BMP180;54794;48.348;7.878;2022-07-24T09:51:10;99396.00;;;33.20
68012;BMP180;54794;48.348;7.878;2022-07-24T09:53:37;99398.00;;;33.30
68012;BMP180;54794;48.348;7.878;2022-07-24T09:56:16;99393.00;;;33.40
68012;BMP180;54794;48.348;7.878;2022-07-24T09:58:47;99388.00;;;33.50
68012;BMP180;54794;48.348;7.878;2022-07-24T10:01:19;99378.00;;;33.60
68012;BMP180;54794;48.348;7.878;2022-07-24T10:03:48;99375.00;;;33.70
68012;BMP180;54794;48.348;7.878;2022-07-24T10:06:20;99383.00;;;33.80
68012;BMP180;54794;48.348;7.878;2022-07-24T10:08:50;99373.00;;;33.90
68012;BMP180;54794;48.348;7.878;2022-07-24T10:11:19;99388.00;;;34.00
68012;BMP180;54794;48.348;7.878;2022-07-24T10:13:47;99388.00;;;34.10
68012;BMP180;54794;48.348;7.878;2022-07-24T10:18:51;99389.00;;;34.30
68012;BMP180;54794;48.348;7.878;2022-07-24T10:21:30;99383.00;;;34.40
68012;BMP180;54794;48.348;7.878;2022-07-24T10:26:45;99392.00;;;34.50
68012;BMP180;54794;48.348;7.878;2022-07-24T10:29:17;99392.00;;;34.60
68012;BMP180;54794;48.348;7.878;2022-07-24T10:37:37;99371.00;;;34.90
68012;BMP180;54794;48.348;7.878;2022-07-24T10:40:17;99380.00;;;35.00
68012;BMP180;54794;48.348;7.878;2022-07-24T10:45:37;99376.00;;;35.20
68012;BMP180;54794;48.348;7.878;2022-07-24T10:51:00;99371.00;;;35.40
68012;BMP180;54794;48.348;7.878;2022-07-24T10:59:11;99363.00;;;35.60
68012;BMP180;54794;48.348;7.878;2022-07-24T11:01:39;99366.00;;;35.70
68012;BMP180;54794;48.348;7.878;2022-07-24T11:06:50;99352.00;;;35.90
68012;BMP180;54794;48.348;7.878;2022-07-24T11:09:24;99358.00;;;36.00
68012;BMP180;54794;48.348;7.878;2022-07-24T11:14:24;99344.00;;;36.10
68012;BMP180;54794;48.348;7.878;2022-07-24T11:16:52;99348.00;;;36.20
68012;BMP180;54794;48.348;7.878;2022-07-24T11:21:48;99334.00;;;36.40
68012;BMP180;54794;48.348;7.878;2022-07-24T11:27:03;99326.00;;;36.50
68012;BMP180;54794;48.348;7.878;2022-07-24T11:29:37;99334.00;;;36.50
68012;BMP180;54794;48.348;7.878;2022-07-24T11:32:13;99321.00;;;36.60
68012;BMP180;54794;48.348;7.878;2022-07-24T11:34:48;99317.00;;;36.70
68012;BMP180;54794;48.348;7.878;2022-07-24T11:37:17;99305.00;;;36.80
68012;BMP180;54794;48.348;7.878;2022-07-24T11:39:46;99315.00;;;36.90
68012;BMP180;54794;48.348;7.878;2022-07-24T11:42:15;99320.00;;;37.00
68012;BMP180;54794;48.348;7.878;2022-07-24T11:44:48;99314.00;;;37.10
68012;BMP180;54794;48.348;7.878;2022-07-24T11:47:20;99314.00;;;37.10
68012;BMP180;54794;48.348;7.878;2022-07-24T11:49:56;99307.00;;;37.20
68012;BMP180;54794;48.348;7.878;2022-07-24T11:52:35;99312.00;;;37.20
68012;BMP180;54794;48.348;7.878;2022-07-24T11:55:18;99306.00;;;37.30
68012;BMP180;54794;48.348;7.878;2022-07-24T11:57:52;99297.00;;;37.40
68012;BMP180;54794;48.348;7.878;2022-07-24T12:00:40;99287.00;;;37.50
68012;BMP180;54794;48.348;7.878;2022-07-24T12:03:09;99285.00;;;37.60
68012;BMP180;54794;48.348;7.878;2022-07-24T12:05:38;99285.00;;;37.60
68012;BMP180;54794;48.348;7.878;2022-07-24T12:08:23;99275.00;;;37.70
68012;BMP180;54794;48.348;7.878;2022-07-24T12:10:58;99287.00;;;37.80
68012;BMP180;54794;48.348;7.878;2022-07-24T12:13:28;99283.00;;;37.80
68012;BMP180;54794;48.348;7.878;2022-07-24T12:15:57;99277.00;;;37.80
68012;BMP180;54794;48.348;7.878;2022-07-24T12:18:24;99267.00;;;37.90
68012;BMP180;54794;48.348;7.878;2022-07-24T12:21:01;99274.00;;;38.00
68012;BMP180;54794;48.348;7.878;2022-07-24T12:23:28;99266.00;;;38.00
68012;BMP180;54794;48.348;7.878;2022-07-24T12:25:56;99262.00;;;38.10
68012;BMP180;54794;48.348;7.878;2022-07-24T12:28:23;99263.00;;;38.10
68012;BMP180;54794;48.348;7.878;2022-07-24T12:30:54;99263.00;;;38.20
68012;BMP180;54794;48.348;7.878;2022-07-24T12:33:24;99266.00;;;38.20
68012;BMP180;54794;48.348;7.878;2022-07-24T12:35:58;99250.00;;;38.30
68012;BMP180;54794;48.348;7.878;2022-07-24T12:38:32;99248.00;;;38.40
68012;BMP180;54794;48.348;7.878;2022-07-24T12:41:07;99247.00;;;38.50
68012;BMP180;54794;48.348;7.878;2022-07-24T12:43:50;99245.00;;;38.50
68012;BMP180;54794;48.348;7.878;2022-07-24T12:57:03;99219.00;;;38.90
68012;BMP180;54794;48.348;7.878;2022-07-24T12:59:45;99221.00;;;39.00
68012;BMP180;54794;48.348;7.878;2022-07-24T13:02:22;99229.00;;;39.10
68012;BMP180;54794;48.348;7.878;2022-07-24T13:04:54;99227.00;;;39.20
68012;BMP180;54794;48.348;7.878;2022-07-24T13:07:24;99217.00;;;39.20
68012;BMP180;54794;48.348;7.878;2022-07-24T13:09:52;99216.00;;;39.30
68012;BMP180;54794;48.348;7.878;2022-07-24T13:12:20;99211.00;;;39.30
68012;BMP180;54794;48.348;7.878;2022-07-24T13:14:47;99215.00;;;39.40
68012;BMP180;54794;48.348;7.878;2022-07-24T13:17:17;99212.00;;;39.40
68012;BMP180;54794;48.348;7.878;2022-07-24T13:19:48;99212.00;;;39.50
68012;BMP180;54794;48.348;7.878;2022-07-24T13:22:16;99205.00;;;39.60
68012;BMP180;54794;48.348;7.878;2022-07-24T13:24:44;99204.00;;;39.70
68012;BMP180;54794;48.348;7.878;2022-07-24T13:27:12;99199.00;;;39.70
68012;BMP180;54794;48.348;7.878;2022-07-24T13:29:41;99191.00;;;39.80
68012;BMP180;54794;48.348;7.878;2022-07-24T13:32:08;99174.00;;;39.90
68012;BMP180;54794;48.348;7.878;2022-07-24T13:34:35;99190.00;;;39.90
68012;BMP180;54794;48.348;7.878;2022-07-24T13:37:04;99180.00;;;40.00
68012;BMP180;54794;48.348;7.878;2022-07-24T13:39:34;99177.00;;;40.10
68012;BMP180;54794;48.348;7.878;2022-07-24T13:42:04;99181.00;;;40.10
68012;BMP180;54794;48.348;7.878;2022-07-24T13:44:31;99174.00;;;40.10
68012;BMP180;54794;48.348;7.878;2022-07-24T13:46:58;99174.00;;;40.10
68012;BMP180;54794;48.348;7.878;2022-07-24T13:49:25;99174.00;;;40.10
68012;BMP180;54794;48.348;7.878;2022-07-24T13:51:52;99155.00;;;40.10
68012;BMP180;54794;48.348;7.878;2022-07-24T13:54:19;99155.00;;;40.10
68012;BMP180;54794;48.348;7.878;2022-07-24T13:56:46;99156.00;;;40.10
68012;BMP180;54794;48.348;7.878;2022-07-24T13:59:13;99152.00;;;40.10
68012;BMP180;54794;48.348;7.878;2022-07-24T14:01:40;99151.00;;;40.10
68012;BMP180;54794;48.348;7.878;2022-07-24T14:04:07;99141.00;;;40.10
68012;BMP180;54794;48.348;7.878;2022-07-24T14:06:57;99146.00;;;40.20
68012;BMP180;54794;48.348;7.878;2022-07-24T14:09:25;99139.00;;;40.20
68012;BMP180;54794;48.348;7.878;2022-07-24T14:11:53;99145.00;;;40.20
68012;BMP180;54794;48.348;7.878;2022-07-24T14:14:20;99141.00;;;40.30
68012;BMP180;54794;48.348;7.878;2022-07-24T14:16:48;99128.00;;;40.30
68012;BMP180;54794;48.348;7.878;2022-07-24T14:19:15;99126.00;;;40.40
68012;BMP180;54794;48.348;7.878;2022-07-24T14:21:42;99128.00;;;40.50
68012;BMP180;54794;48.348;7.878;2022-07-24T14:24:15;99117.00;;;40.50
68012;BMP180;54794;48.348;7.878;2022-07-24T14:26:44;99125.00;;;40.50
68012;BMP180;54794;48.348;7.878;2022-07-24T14:29:12;99123.00;;;40.50
68012;BMP180;54794;48.348;7.878;2022-07-24T14:31:39;99119.00;;;40.60
68012;BMP180;54794;48.348;7.878;2022-07-24T14:34:06;99111.00;;;40.50
68012;BMP180;54794;48.348;7.878;2022-07-24T14:36:34;99108.00;;;40.40
68012;BMP180;54794;48.348;7.878;2022-07-24T14:39:01;99107.00;;;40.40
68012;BMP180;54794;48.348;7.878;2022-07-24T14:41:28;99093.00;;;40.40
68012;BMP180;54794;48.348;7.878;2022-07-24T14:43:55;99098.00;;;40.50
68012;BMP180;54794;48.348;7.878;2022-07-24T14:46:26;99093.00;;;40.50
68012;BMP180;54794;48.348;7.878;2022-07-24T14:48:53;99088.00;;;40.50
68012;BMP180;54794;48.348;7.878;2022-07-24T14:51:20;99094.00;;;40.60
68012;BMP180;54794;48.348;7.878;2022-07-24T14:53:47;99092.00;;;40.60
68012;BMP180;54794;48.348;7.878;2022-07-24T14:56:14;99093.00;;;40.60
68012;BMP180;54794;48.348;7.878;2022-07-24T14:58:41;99091.00;;;40.60
68012;BMP180;54794;48.348;7.878;2022-07-24T15:01:08;99088.00;;;40.60
68012;BMP180;54794;48.348;7.878;2022-07-24T15:03:35;99083.00;;;40.70
68012;BMP180;54794;48.348;7.878;2022-07-24T15:06:02;99078.00;;;40.60
68012;BMP180;54794;48.348;7.878;2022-07-24T15:08:29;99078.00;;;40.70
68012;BMP180;54794;48.348;7.878;2022-07-24T15:10:56;99070.00;;;40.70